createdAt,value
2022-08-02T00:02:09.641Z,58.82
2022-08-02T00:07:11.312Z,58.96
2022-08-02T00:12:12.955Z,58.89
2022-08-02T00:17:14.549Z,58.94
2022-08-02T00:22:16.005Z,59.15
2022-08-02T00:27:17.469Z,59.12
2022-08-02T00:32:18.864Z,59.39
2022-08-02T00:37:20.222Z,59.47
2022-08-02T00:42:21.577Z,59.69
2022-08-02T00:47:22.893Z,59.69
2022-08-02T00:52:24.472Z,59.85
2022-08-02T00:57:25.873Z,59.61
2022-08-02T01:02:27.313Z,60.17
2022-08-02T01:07:28.669Z,59.91
2022-08-02T01:12:30.126Z,60.17
2022-08-02T01:17:50.841Z,60.21
2022-08-02T01:23:02.025Z,60.44
2022-08-02T01:28:26.349Z,60.62
2022-08-02T01:33:35.814Z,60.13
2022-08-02T01:38:44.665Z,60.48
2022-08-02T01:43:47.865Z,60.33
2022-08-02T01:48:50.518Z,60.57
2022-08-02T01:53:52.083Z,60.57
2022-08-02T01:58:54.462Z,60.95
2022-08-02T02:03:56.354Z,61.00
2022-08-02T02:09:00.103Z,60.85
2022-08-02T02:14:02.933Z,60.81
2022-08-02T02:19:07.053Z,60.38
2022-08-02T02:24:11.691Z,61.29
2022-08-02T02:29:14.771Z,60.92
2022-08-02T02:34:23.963Z,61.20
2022-08-02T02:39:28.468Z,61.30
2022-08-02T02:44:32.059Z,61.63
2022-08-02T02:49:35.781Z,61.88
2022-08-02T02:54:38.765Z,62.16
2022-08-02T02:59:43.055Z,61.97
2022-08-02T03:04:56.978Z,62.58
2022-08-02T03:09:59.901Z,62.27
2022-08-02T03:15:05.114Z,62.26
2022-08-02T03:20:09.552Z,62.70
2022-08-02T03:25:12.779Z,62.90
2022-08-02T03:30:14.978Z,61.86
2022-08-02T03:35:23.346Z,62.14
2022-08-02T03:40:27.536Z,62.60
2022-08-02T03:45:30.273Z,62.05
2022-08-02T03:50:33.812Z,62.25
2022-08-02T03:55:36.371Z,62.74
2022-08-02T04:00:37.930Z,62.42
2022-08-02T04:06:04.099Z,62.43
2022-08-02T04:11:19.581Z,62.22
2022-08-02T04:16:24.986Z,62.62
2022-08-02T04:21:48.544Z,62.78
2022-08-02T04:26:50.736Z,63.11
2022-08-02T04:31:54.031Z,63.75
2022-08-02T04:36:55.972Z,63.55
2022-08-02T04:41:58.027Z,63.61
2022-08-02T04:47:06.470Z,63.91
2022-08-02T04:52:08.563Z,63.78
2022-08-02T04:57:28.541Z,63.73
2022-08-02T05:02:46.850Z,63.53
2022-08-02T05:07:56.281Z,63.27
2022-08-02T05:12:57.935Z,63.23
2022-08-02T05:18:00.987Z,63.16
2022-08-02T05:23:03.471Z,63.51
2022-08-02T05:28:08.345Z,63.51
2022-08-02T05:33:12.821Z,63.44
2022-08-02T05:38:14.129Z,64.20
2022-08-02T05:43:16.339Z,63.30
2022-08-02T05:48:17.717Z,64.06
2022-08-02T05:53:35.372Z,63.65
2022-08-02T05:58:47.301Z,63.14
2022-08-02T06:03:52.598Z,63.43
2022-08-02T06:09:03.832Z,63.20
2022-08-02T06:14:06.937Z,61.45
2022-08-02T06:19:08.978Z,61.21
2022-08-02T06:24:10.768Z,60.70
2022-08-02T06:29:12.870Z,60.70
2022-08-02T06:34:14.195Z,60.13
2022-08-02T06:39:31.250Z,60.00
2022-08-02T06:44:52.989Z,59.34
2022-08-02T06:49:55.668Z,58.82
2022-08-02T06:55:03.173Z,59.52
2022-08-02T07:00:09.064Z,58.42
2022-08-02T07:05:10.638Z,57.67
2022-08-02T07:10:13.725Z,57.60
2022-08-02T07:15:16.294Z,57.33
2022-08-02T07:20:17.663Z,56.76
2022-08-02T07:25:19.313Z,56.08
2022-08-02T07:30:20.797Z,55.35
2022-08-02T07:35:22.409Z,56.25
2022-08-02T07:40:24.968Z,56.53
2022-08-02T07:45:27.271Z,55.70
2022-08-02T07:50:28.587Z,54.46
2022-08-02T07:55:39.330Z,53.18
2022-08-02T08:00:43.156Z,51.86
2022-08-02T08:05:44.530Z,51.87
2022-08-02T08:10:46.868Z,49.53
2022-08-02T08:15:52.045Z,48.47
2022-08-02T08:20:53.914Z,46.70
2022-08-02T08:25:55.869Z,47.29
2022-08-02T08:30:57.351Z,46.17
2022-08-02T08:35:58.714Z,44.19
2022-08-02T08:41:04.106Z,45.01
2022-08-02T08:46:06.544Z,43.73
2022-08-02T08:51:13.817Z,43.64
2022-08-02T08:56:16.846Z,41.99
2022-08-02T09:01:18.518Z,41.31
2022-08-02T09:06:20.555Z,40.87
2022-08-02T09:11:26.308Z,39.47
2022-08-02T09:16:39.133Z,38.00
2022-08-02T09:21:40.464Z,37.65
2022-08-02T09:26:42.391Z,35.97
2022-08-02T09:31:49.350Z,36.40
2022-08-02T09:36:54.295Z,34.20
2022-08-02T09:42:11.966Z,34.05
2022-08-02T09:47:16.443Z,32.98
2022-08-02T09:52:23.296Z,32.68
2022-08-02T09:57:38.987Z,32.79
2022-08-02T10:02:40.419Z,32.45
2022-08-02T10:07:42.022Z,32.30
2022-08-02T10:12:43.424Z,30.38
2022-08-02T10:17:45.189Z,32.00
2022-08-02T10:22:47.116Z,29.60
2022-08-02T10:28:04.861Z,28.95
2022-08-02T10:33:08.826Z,29.24
2022-08-02T10:38:12.334Z,28.39
2022-08-02T10:43:36.595Z,27.47
2022-08-02T10:49:38.086Z,26.05
2022-08-02T10:54:41.477Z,25.92
2022-08-02T10:59:51.540Z,26.63
2022-08-02T11:04:55.832Z,25.15
2022-08-02T11:09:59.223Z,25.75
2022-08-02T11:15:07.408Z,25.97
2022-08-02T11:20:12.297Z,23.67
2022-08-02T11:26:02.288Z,24.12
2022-08-02T11:31:00.902Z,25.84
2022-08-02T11:36:05.133Z,24.79
2022-08-02T11:41:09.956Z,24.41
2022-08-02T11:46:14.261Z,25.26
2022-08-02T11:51:18.040Z,24.23
2022-08-02T11:56:27.325Z,24.21
2022-08-02T12:01:30.809Z,23.10
2022-08-02T12:06:34.884Z,23.88
2022-08-02T12:11:39.106Z,22.93
2022-08-02T12:16:59.431Z,24.31
2022-08-02T12:22:10.065Z,24.39
2022-08-02T12:27:28.723Z,23.16
2022-08-02T12:32:30.561Z,23.00
2022-08-02T12:37:32.018Z,23.67
2022-08-02T12:42:46.640Z,22.66
2022-08-02T12:47:51.143Z,23.90
2022-08-02T12:53:13.704Z,23.90
2022-08-02T12:58:15.420Z,24.02
2022-08-02T13:04:08.961Z,23.11
2022-08-02T13:08:41.610Z,24.32
2022-08-02T13:13:43.596Z,24.22
2022-08-02T13:18:46.184Z,24.16
2022-08-02T13:23:54.240Z,23.97
2022-08-02T13:28:55.911Z,23.73
2022-08-02T13:33:57.164Z,23.88
2022-08-02T13:38:58.487Z,24.20
2022-08-02T13:44:08.912Z,24.29
2022-08-02T13:49:15.084Z,23.68
2022-08-02T13:54:19.393Z,24.52
2022-08-02T13:59:53.945Z,24.18
2022-08-02T14:04:42.071Z,25.02
2022-08-02T14:09:43.581Z,25.29
2022-08-02T14:14:44.926Z,25.15
2022-08-02T14:19:46.534Z,25.25
2022-08-02T14:24:47.766Z,24.72
2022-08-02T14:29:51.242Z,24.67
2022-08-02T14:34:52.700Z,23.97
2022-08-02T14:40:00.010Z,24.88
2022-08-02T14:45:02.314Z,25.97
2022-08-02T14:50:04.202Z,25.97
2022-08-02T14:55:06.192Z,26.27
2022-08-02T15:00:08.503Z,25.41
2022-08-02T15:05:09.903Z,25.41
2022-08-02T15:10:11.302Z,25.52
2022-08-02T15:15:12.648Z,25.98
2022-08-02T15:20:25.319Z,26.57
2022-08-02T15:25:27.497Z,25.98
2022-08-02T15:30:28.819Z,26.33
2022-08-02T15:35:30.186Z,26.50
2022-08-02T15:40:31.499Z,26.06
2022-08-02T15:45:35.060Z,26.66
2022-08-02T15:50:36.460Z,26.80
2022-08-02T15:55:52.003Z,27.67
2022-08-02T16:01:00.425Z,27.20
2022-08-02T16:06:01.920Z,26.78
2022-08-02T16:11:03.366Z,27.04
2022-08-02T16:16:04.960Z,26.96
2022-08-02T16:21:06.284Z,26.74
2022-08-02T16:26:07.771Z,27.33
2022-08-02T16:31:11.270Z,27.02
2022-08-02T16:36:14.259Z,27.18
2022-08-02T16:41:16.343Z,27.31
2022-08-02T16:46:19.036Z,27.61
2022-08-02T16:51:20.511Z,27.53
2022-08-02T16:56:22.454Z,27.48
2022-08-02T17:01:27.412Z,28.16
2022-08-02T17:06:29.202Z,27.74
2022-08-02T17:11:30.689Z,27.96
2022-08-02T17:16:32.732Z,28.64
2022-08-02T17:21:34.084Z,28.58
2022-08-02T17:26:37.161Z,28.36
2022-08-02T17:31:44.389Z,28.49
2022-08-02T17:36:49.683Z,28.81
2022-08-02T17:41:51.287Z,29.16
2022-08-02T17:46:52.662Z,28.97
2022-08-02T17:52:49.369Z,28.94
2022-08-02T17:57:15.798Z,28.92
2022-08-02T18:02:17.382Z,29.06
2022-08-02T18:07:25.037Z,29.06
2022-08-02T18:12:27.046Z,29.65
2022-08-02T18:17:29.336Z,30.22
2022-08-02T18:22:30.760Z,30.13
2022-08-02T18:27:32.253Z,30.10
2022-08-02T18:33:55.938Z,30.27
2022-08-02T18:37:57.408Z,30.48
2022-08-02T18:43:03.519Z,30.68
2022-08-02T18:48:07.456Z,30.38
2022-08-02T18:53:09.424Z,31.24
2022-08-02T18:58:20.213Z,31.25
2022-08-02T19:03:22.251Z,31.11
2022-08-02T19:08:25.405Z,31.44
2022-08-02T19:13:27.833Z,31.73
2022-08-02T19:18:31.917Z,32.02
2022-08-02T19:23:34.115Z,32.42
2022-08-02T19:28:35.567Z,32.20
2022-08-02T19:34:05.794Z,32.66
2022-08-02T19:38:59.661Z,33.15
2022-08-02T19:44:25.378Z,33.21
2022-08-02T19:49:40.172Z,33.54
2022-08-02T19:54:54.983Z,33.57
2022-08-02T19:59:57.467Z,33.74
2022-08-02T20:04:59.846Z,33.94
2022-08-02T20:10:01.739Z,34.84
2022-08-02T20:15:07.861Z,34.47
2022-08-02T20:20:17.264Z,35.16
2022-08-02T20:25:19.039Z,35.00
2022-08-02T20:30:20.479Z,35.57
2022-08-02T20:35:26.893Z,36.44
2022-08-02T20:40:28.790Z,36.93
2022-08-02T20:45:30.404Z,37.00
2022-08-02T20:50:52.167Z,39.65
2022-08-02T20:55:55.762Z,39.18
2022-08-02T21:00:59.797Z,39.38
2022-08-02T21:06:01.553Z,38.91
2022-08-02T21:11:09.544Z,38.70
2022-08-02T21:16:18.353Z,38.84
2022-08-02T21:21:22.822Z,38.89
2022-08-02T21:26:25.905Z,38.95
2022-08-02T21:31:35.916Z,38.55
2022-08-02T21:36:38.035Z,39.25
2022-08-02T21:41:46.441Z,38.12
2022-08-02T21:46:55.966Z,38.40
2022-08-02T21:51:57.522Z,38.34
2022-08-02T21:56:58.834Z,38.00
2022-08-02T22:02:00.213Z,37.52
2022-08-02T22:07:01.631Z,38.62
2022-08-02T22:12:04.702Z,38.54
2022-08-02T22:17:13.689Z,39.10
2022-08-02T22:22:15.407Z,39.04
2022-08-02T22:27:16.774Z,38.78
2022-08-02T22:32:39.954Z,38.35
2022-08-02T22:38:17.506Z,37.46
2022-08-02T22:43:04.157Z,38.54
2022-08-02T22:48:06.488Z,38.68
2022-08-02T22:53:07.923Z,38.15
2022-08-02T22:58:09.538Z,38.90
2022-08-02T23:03:10.864Z,38.97
2022-08-02T23:08:12.174Z,39.64
2022-08-02T23:13:13.504Z,39.89
2022-08-02T23:18:33.507Z,40.27
2022-08-02T23:23:34.825Z,40.70
2022-08-02T23:28:36.318Z,40.65
2022-08-02T23:34:03.941Z,40.72
2022-08-02T23:38:59.835Z,41.42
2022-08-02T23:44:13.548Z,41.21
2022-08-02T23:49:16.643Z,41.86
2022-08-02T23:54:18.257Z,41.99
2022-08-02T23:59:19.754Z,41.87
